Flight Track Log - Related Links

Times and Time Zones

All times are in EDT time to prevent confusion due to time zone crossing. See the AAY891 flight status page for this flight to view local times or setup timezone preferences in your user account.

Time Position Orientation Groundspeed Altitude Reporting Facility
EDT Latitude Longitude Course Direction KTS MPH feet Rate Location/Type
Wed 07:31:35 PM 40.5436 -85.2760 184° South 358 412 14,300  Level FlightAware ADS-B
Wed 07:32:10 PM 40.4858 -85.2834 186° South 351 404 15,900 2,458 Climbing FlightAware ADS-B
Wed 07:32:58 PM 40.4073 -85.2942 186° South 357 411 17,700 2,203 Climbing FlightAware ADS-B
Wed 07:33:29 PM 40.3567 -85.3008 185° South 365 420 18,800 2,032 Climbing FlightAware ADS-B
Wed 07:34:00 PM 40.3033 -85.3073 185° South 371 427 19,800 1,658 Climbing FlightAware ADS-B
Wed 07:34:45 PM 40.2276 -85.3167 185° South 390 449 20,900 1,685 Climbing FlightAware ADS-B
Wed 07:35:29 PM 40.1480 -85.3268 186° South 400 460 22,300 1,865 Climbing FlightAware ADS-B
Wed 07:35:59 PM 40.0913 -85.3339 185° South 404 465 23,200 1,770 Climbing FlightAware ADS-B
Wed 07:36:30 PM 40.0303 -85.3415 186° South 409 471 24,100 1,645 Climbing FlightAware ADS-B
Wed 07:37:01 PM 39.9716 -85.3488 185° South 413 475 24,900 750 Climbing FlightAware ADS-B
Wed 07:37:42 PM 39.8977 -85.3581 185° South 413 475 25,000 82 Climbing FlightAware ADS-B
Wed 07:38:14 PM 39.8366 -85.3657 185° South 413 475 25,000 753 Level FlightAware ADS-B
Wed 07:41:17 PM 39.4801 -85.4101 186° South 429 494 27,700 940 Climbing FlightAware ADS-B
Wed 07:42:42 PM 39.8102 -85.3690 172° South 453 521 29,200 1,045 Climbing FlightAware ADS-B
Wed 07:43:52 PM 39.7100 -85.3815 172° South 459 528 30,400 1,083 Climbing FlightAware ADS-B (KCVG)
Wed 07:46:07 PM 39.4657 -85.4119 180° South 465 535 32,900 1,185 Climbing FlightAware ADS-B
Wed 07:47:55 PM 39.0493 -85.3512 173° South 465 535 35,200 1,029 Climbing FlightAware ADS-B
Wed 07:50:06 PM 39.4657 -85.4119 174° South 454 522 37,000 507 Climbing FlightAware ADS-B
Wed 07:51:28 PM 38.2072 -85.2939 174° South 453 521 37,000  Level Indianapolis Center
Wed 07:56:25 PM 37.6127 -85.2150 174° South 452 520 37,000  Level FlightAware ADS-B (KCVG)
Wed 07:57:14 PM 37.4811 -85.1979 174° South 452 520 37,000  Level FlightAware ADS-B (EPWR / WRO)
Wed 07:57:45 PM 37.4144 -85.1894 174° South 452 520 37,000  Level FlightAware ADS-B (EPWR / WRO)
Wed 07:58:34 PM 37.3093 -85.1759 174° South 452 520 37,000  Level FlightAware ADS-B (EPWR / WRO)
Wed 07:59:12 PM 37.2464 -85.1677 174° South 451 519 37,000  Level FlightAware ADS-B (EPWR / WRO)
Wed 07:59:47 PM 37.1601 -85.1566 174° South 450 518 37,000  Level FlightAware ADS-B (EPWR / WRO)
Wed 08:01:18 PM 36.9731 -85.1327 174° South 451 519 37,000  Level FlightAware ADS-B (KMDQ)
Wed 08:02:02 PM 36.9542 -85.1303 174° South 454 522 37,000  Level FlightAware ADS-B (KMDQ)
Wed 08:04:20 PM 36.5931 -85.0844 174° South 461 531 37,000  Level FlightAware ADS-B (KMDQ)
Wed 08:05:00 PM 36.5053 -85.0733 174° South 462 532 37,000  Level FlightAware ADS-B (KMDQ)
Wed 08:05:36 PM 36.4280 -85.0635 174° South 463 533 37,000  Level FlightAware ADS-B (KMDQ)
Wed 08:06:20 PM 36.3335 -85.0516 174° South 464 534 37,000  Level FlightAware ADS-B (KMDQ)
Wed 08:06:59 PM 36.2626 -85.0428 174° South 466 536 37,000  Level FlightAware ADS-B (KMDQ)
Wed 08:07:39 PM 36.1646 -85.0306 174° South 468 539 37,000  Level FlightAware ADS-B (KMDQ)
Wed 08:08:20 PM 36.0867 -85.0208 174° South 469 540 37,000  Level FlightAware ADS-B (KMDQ)
Wed 08:09:00 PM 35.9955 -85.0094 174° South 470 541 37,000  Level FlightAware ADS-B (KMDQ)
Wed 08:09:40 PM 35.9032 -84.9979 174° South 471 542 37,000  Level FlightAware ADS-B (KMDQ)
Wed 08:10:16 PM 35.8243 -84.9881 174° South 471 542 37,000  Level FlightAware ADS-B (KMDQ)
Wed 08:11:20 PM 35.6828 -84.9706 174° South 470 541 37,000  Level FlightAware ADS-B (KMDQ)
Wed 08:11:58 PM 35.6033 -84.9608 174° South 471 542 37,000  Level FlightAware ADS-B (KMDQ)
Wed 08:12:36 PM 35.5458 -84.9537 174° South 472 543 37,000  Level FlightAware ADS-B (KMDQ)
Wed 08:13:20 PM 35.4399 -84.9407 174° South 472 543 37,000  Level FlightAware ADS-B (KMDQ)
Wed 08:14:00 PM 35.3353 -84.9279 174° South 471 542 37,000  Level FlightAware ADS-B (KMDQ)
Wed 08:14:40 PM 35.2503 -84.9176 174° South 471 542 37,000  Level FlightAware ADS-B (KMDQ)
Wed 08:15:20 PM 35.1811 -84.9092 175° South 471 542 37,000  Level FlightAware ADS-B (KMDQ)
Wed 08:15:53 PM 35.0911 -84.8985 174° South 470 541 37,000  Level FlightAware ADS-B (KMDQ)
Wed 08:16:33 PM 35.0477 -84.8932 174° South 470 541 37,000  Level FlightAware ADS-B (KMDQ)
Wed 08:19:28 PM 34.2810 -84.8014 174° South 467 537 37,000  Level FlightAware ADS-B (KDZJ)
Wed 08:20:08 PM 34.1943 -84.7912 174° South 467 537 37,000  Level FlightAware ADS-B (KDZJ)
Wed 08:20:48 PM 34.1051 -84.7806 174° South 467 537 37,000 75 Level FlightAware ADS-B (KDZJ)
Wed 08:21:28 PM 34.0188 -84.7702 174° South 466 536 37,100  Climbing FlightAware ADS-B (KDZJ)
Wed 08:22:09 PM 33.9300 -84.7592 174° South 472 543 37,000 -75 Descending FlightAware ADS-B (KDZJ)
Wed 08:22:48 PM 33.8445 -84.7488 174° South 465 535 37,000  Level FlightAware ADS-B (KDZJ)
Wed 08:23:20 PM 33.7749 -84.7406 174° South 466 536 37,000  Level FlightAware ADS-B (KDZJ)
Wed 08:23:52 PM 34.0489 -84.7758 174° South 478 550 37,000  Level Atlanta Center
Wed 08:24:52 PM 33.9175 -84.7622 175° South 478 550 37,000  Level Atlanta Center
Wed 08:25:52 PM 33.7861 -84.7436 173° South 478 550 37,000  Level Atlanta Center
Wed 08:26:52 PM 33.6544 -84.7275 174° South 478 550 37,000  Level Atlanta Center
Wed 08:27:52 PM 33.5231 -84.7142 175° South 478 550 37,000 50 Level Atlanta Center
Wed 08:28:52 PM 33.3897 -84.6981 174° South 478 550 37,100  Climbing Atlanta Center
Wed 08:29:52 PM 33.2542 -84.6822 174° South 478 550 37,000 -50 Descending Atlanta Center
Wed 08:30:52 PM 33.1183 -84.6689 175° South 483 556 37,000  Level Atlanta Center
Wed 08:31:52 PM 32.9850 -84.6506 173° South 483 556 37,000  Level Atlanta Center
Wed 08:32:52 PM 32.8494 -84.6347 174° South 483 556 37,000  Level Atlanta Center
Wed 08:33:52 PM 32.7117 -84.6189 174° South 483 556 37,000  Level Atlanta Center
Wed 08:34:52 PM 32.5739 -84.6058 175° South 488 562 37,000  Level Atlanta Center
Wed 08:35:52 PM 32.4364 -84.5875 174° South 498 573 37,000  Level Atlanta Center
Wed 08:36:52 PM 32.2967 -84.5572 170° South 503 579 37,000  Level Atlanta Center
Wed 08:37:52 PM 32.1611 -84.5197 167° South 503 579 37,000  Level Atlanta Center
Wed 08:38:43 PM 32.0439 -84.4881 167° South 505 581 37,000  Level Jacksonville Center
Wed 08:39:42 PM 31.9064 -84.4514 167° South 521 600 37,000  Level Jacksonville Center
Wed 08:40:42 PM 31.7669 -84.4125 167° South 521 600 37,000  Level Jacksonville Center
Wed 08:41:43 PM 31.6275 -84.3711 166° South 521 600 37,000  Level Jacksonville Center
Wed 08:42:43 PM 31.4925 -84.3178 161° South 516 594 37,000  Level Jacksonville Center
Wed 08:48:52 PM 30.7195 -84.0377 163° South 529 609 37,000  Level FlightAware ADS-B (KONZ)
Wed 08:49:59 PM 30.5072 -83.9620 163° South 527 606 37,000  Level FlightAware ADS-B (KONZ)
Wed 08:50:30 PM 30.4029 -83.9249 163° South 528 608 37,000  Level FlightAware ADS-B (KONZ)
Wed 08:51:35 PM 30.2470 -83.8696 163° South 529 609 37,000  Level FlightAware ADS-B (KONZ)
Wed 08:52:13 PM 30.1609 -83.8391 163° South 529 609 37,000  Level FlightAware ADS-B (KONZ)
Wed 08:53:43 PM 29.9544 -83.7675 163° South 522 601 37,000 -200 Level Jacksonville Center
Wed 08:54:43 PM 29.8253 -83.7233 163° South 533 613 36,500 -1,350 Descending Jacksonville Center
Wed 08:55:43 PM 29.6858 -83.6742 163° South 528 608 34,300 -2,150 Descending Jacksonville Center
Wed 08:56:43 PM 29.5525 -83.6278 163° South 516 594 32,200 -2,000 Descending Jacksonville Center
Wed 08:57:43 PM 29.4211 -83.5817 163° South 504 580 30,300 -1,950 Descending Jacksonville Center
Wed 08:58:43 PM 29.2983 -83.5378 163° South 482 555 28,300 -2,017 Descending Jacksonville Center
Wed 08:59:42 PM 29.1794 -83.4847 159° South 469 540 26,300 -1,834 Descending Jacksonville Center
Wed 09:05:32 PM 28.5919 -83.1110 151° Southeast 351 404 15,800 -1,700 Descending FlightAware ADS-B
Wed 09:06:42 PM 28.4983 -83.0514 151° Southeast 341 392 14,400 -1,290 Descending Miami Center
Wed 09:07:19 PM 28.4500 -83.0167 148° Southeast 324 373 13,500 -1,299 Descending Tampa TRACON
Wed 09:08:19 PM 28.3667 -82.9667 152° Southeast 325 374 12,300 -1,200 Descending Tampa TRACON
Wed 09:09:19 PM 28.2833 -82.9333 161° South 286 329 11,100 -1,286 Descending Tampa TRACON
Wed 09:10:25 PM 28.2167 -82.9000 156° South 272 313 9,600 -1,667 Descending Tampa TRACON
Wed 09:11:25 PM 28.1500 -82.8833 168° South 257 296 7,600 -2,200 Descending Tampa TRACON
Wed 09:12:25 PM 28.0667 -82.8500 161° South 253 291 5,200 -1,700 Descending Tampa TRACON
Wed 09:13:25 PM 28.0000 -82.8333 168° South 248 285 4,200 -1,100 Descending Tampa TRACON
Wed 09:14:25 PM 27.9500 -82.8167 164° South 223 257 3,000 -1,053 Descending Tampa TRACON
Wed 09:15:19 PM 27.9000 -82.8000 164° South 212 244 2,200 -737 Descending Tampa TRACON
Wed 09:16:19 PM 27.8500 -82.7833 164° South 195 224 1,600 -313 Descending Tampa TRACON
Wed 09:17:14 PM 27.8167 -82.7333 127° Southeast 168 193 1,600 -250 Level Tampa TRACON
Wed 09:18:19 PM 27.8333 -82.6833 69° East 146 168 1,100 -432 Descending Tampa TRACON
Wed 09:19:19 PM 27.8667 -82.6833 360° North 121 139 700 -340 Descending Tampa TRACON
Wed 09:20:58 PM 27.9117 -82.6903 352° North 132 152 200 -303 Descending Miami Center

Login

Don't have an account? Register now (free) for customized features, flight alerts, and more!